aviador You're here:

LKPR Decoded Metar

PRAGUE in CZECH REPUBLIC
Report Time2017-09-20 16:30:00
UTC Time2017-09-20 16:36:47
Flight Rules vfr VFR
Wind280° at 04 kt
W.Decomp.*RWY 30: 3.7 kt HW 1.5 kt LCW
RWY 24: 3.2 kt HW 2.5 kt RCW
RWY 22: 2.1 kt HW 3.4 kt RCW
W.Rank280° ranks 12
Current wind is below 280° avg. (7.7)
Visibility9999 m
Phenomena:N/A
Clouds:Few 033 Hf
Expected CloudBase > 2,000 ft AGL from Temp-Dew spread
CeilingNone
Temp13°C (ISA 0)
Dew Point08°C (72% RH)
AAT11.1°C
QNH1019 hPa
Density Alt1,191 ft
Elevation1,198 ft
Report Wrong Elevation
Raw Report
METAR LKPR 201630Z 28004KT 9999 FEW033 13/08 Q1019 NOSIG=

Extra information for LKPR:More info

Metar Taf Metar & Taf Last 4 Metars F.Rules Stats Wind Profile Meteogram Temp Stats Airport Information Weather charts Add Link Nearby VenuesMetar ALERT Operation Metar Decoded Social comments